Athens, Louisiana
Current Conditions -  °F | °C
As of 5:16 AM on Sunday 23 Nov 2014 (Local Time) from KMNE Reporting Station
Drizzle Drizzle  
Wind Chill: 63°   Ceiling: 400
Heat Index: 63°   Visibility: 7mi
Dew Point: 61°   Wind: 6mph
Humidity: 94%   Direction: 160°SSE
Pressure: 29.66"   Gusts: NA
Location:  32.65°N, 93.03°W
Report Text: KMNE 231116Z AUTO 16005KT 7SM DZ OVC004 17/16 A2966 RMK AO2
Loading
Personal Weather Stations






























Interactive Weather Map New forecast layout! Learn more

10-Day Weather Forecast

Advertisements
Track Severe Weather on mobile